createdAt,value
2023-03-13T00:00:06.453Z,36.88
2023-03-13T00:02:51.897Z,37.40
2023-03-13T00:05:37.729Z,36.97
2023-03-13T00:08:23.796Z,52.33
2023-03-13T00:11:12.192Z,42.17
2023-03-13T00:13:59.577Z,26.80
2023-03-13T00:16:45.026Z,35.13
2023-03-13T00:19:30.601Z,46.25
2023-03-13T00:22:23.867Z,40.15
2023-03-13T00:25:09.650Z,47.05
2023-03-13T00:27:54.936Z,47.50
2023-03-13T00:30:40.604Z,44.03
2023-03-13T00:33:25.949Z,36.45
2023-03-13T00:36:22.785Z,29.15
2023-03-13T00:39:08.597Z,36.10
2023-03-13T00:41:54.075Z,40.58
2023-03-13T00:44:39.508Z,34.72
2023-03-13T00:47:26.004Z,39.78
2023-03-13T00:50:11.417Z,34.78
2023-03-13T00:52:57.128Z,29.23
2023-03-13T00:56:02.627Z,32.97
2023-03-13T00:58:50.396Z,29.15
2023-03-13T01:01:39.814Z,32.00
2023-03-13T01:04:25.090Z,40.53
2023-03-13T01:07:10.498Z,34.88
2023-03-13T01:09:56.351Z,27.20
2023-03-13T01:12:42.348Z,27.63
2023-03-13T01:15:27.660Z,33.15
2023-03-13T01:18:15.578Z,40.78
2023-03-13T01:21:01.648Z,28.55
2023-03-13T01:23:47.903Z,33.17
2023-03-13T01:26:33.744Z,33.70
2023-03-13T01:29:19.211Z,31.60
2023-03-13T01:32:05.103Z,28.02
2023-03-13T01:34:53.359Z,23.83
2023-03-13T01:37:38.827Z,24.77
2023-03-13T01:40:24.457Z,28.08
2023-03-13T01:43:27.502Z,22.90
2023-03-13T01:46:21.518Z,28.67
2023-03-13T01:49:29.669Z,28.95
2023-03-13T01:52:32.109Z,26.67
2023-03-13T01:55:44.085Z,22.33
2023-03-13T01:58:30.309Z,34.50
2023-03-13T02:01:17.408Z,25.73
2023-03-13T02:04:04.498Z,33.13
2023-03-13T02:06:53.443Z,31.30
2023-03-13T02:09:43.812Z,39.17
2023-03-13T02:12:41.317Z,27.92
2023-03-13T02:15:28.488Z,37.65
2023-03-13T02:18:15.349Z,35.22
2023-03-13T02:21:18.320Z,30.90
2023-03-13T02:24:28.930Z,32.20
2023-03-13T02:27:17.884Z,40.22
2023-03-13T02:30:07.439Z,34.05
2023-03-13T02:32:53.187Z,26.55
2023-03-13T02:35:40.311Z,30.15
2023-03-13T02:38:35.663Z,31.88
2023-03-13T02:41:23.110Z,26.63
2023-03-13T02:44:09.185Z,23.27
2023-03-13T02:46:54.648Z,25.00
2023-03-13T02:49:44.381Z,23.10
2023-03-13T02:52:40.124Z,23.45
2023-03-13T02:55:40.668Z,20.60
2023-03-13T02:58:28.019Z,23.95
2023-03-13T03:01:14.646Z,29.55
2023-03-13T03:04:01.659Z,17.73
2023-03-13T03:06:50.488Z,21.38
2023-03-13T03:09:35.933Z,22.33
2023-03-13T03:12:25.872Z,18.83
2023-03-13T03:15:12.216Z,13.75
2023-03-13T03:18:02.367Z,18.33
2023-03-13T03:20:47.955Z,13.10
2023-03-13T03:23:34.765Z,17.50
2023-03-13T03:26:20.357Z,22.58
2023-03-13T03:29:08.607Z,12.27
2023-03-13T03:31:54.947Z,16.05
2023-03-13T03:34:40.694Z,16.83
2023-03-13T03:37:29.314Z,12.30
2023-03-13T03:40:17.386Z,15.07
2023-03-13T03:43:03.666Z,12.07
2023-03-13T03:45:49.376Z,8.45
2023-03-13T03:48:35.217Z,12.18
2023-03-13T03:51:23.165Z,14.35
2023-03-13T03:54:08.740Z,15.73
2023-03-13T03:56:54.236Z,19.55
2023-03-13T03:59:39.959Z,19.77
2023-03-13T04:02:27.829Z,10.40
2023-03-13T04:05:20.064Z,11.55
2023-03-13T04:08:09.682Z,13.55
2023-03-13T04:10:56.089Z,15.98
2023-03-13T04:13:44.605Z,17.58
2023-03-13T04:16:30.390Z,13.80
2023-03-13T04:19:15.758Z,11.80
2023-03-13T04:22:01.962Z,16.27
2023-03-13T04:24:48.592Z,11.98
2023-03-13T04:27:34.816Z,10.82
2023-03-13T04:30:20.989Z,16.27
2023-03-13T04:33:25.704Z,10.75
2023-03-13T04:36:35.273Z,14.32
2023-03-13T04:39:53.636Z,16.08
2023-03-13T04:42:59.268Z,12.18
2023-03-13T04:49:14.523Z,23.75
2023-03-13T04:52:00.001Z,21.02
2023-03-13T04:55:01.723Z,17.17
2023-03-13T04:58:13.544Z,14.85
2023-03-13T05:01:21.125Z,10.85
2023-03-13T05:04:26.012Z,17.83
2023-03-13T05:07:37.803Z,12.38
2023-03-13T05:10:30.939Z,11.07
2023-03-13T05:13:45.429Z,11.30
2023-03-13T05:16:45.552Z,11.50
2023-03-13T05:20:00.076Z,16.77
2023-03-13T05:23:06.577Z,16.65
2023-03-13T05:26:27.997Z,12.23
2023-03-13T05:29:26.822Z,10.60
2023-03-13T05:32:35.746Z,12.48
2023-03-13T05:35:45.760Z,15.75
2023-03-13T05:38:57.494Z,10.52
2023-03-13T05:42:02.437Z,18.70
2023-03-13T05:45:09.251Z,13.23
2023-03-13T05:48:30.196Z,12.55
2023-03-13T05:51:30.186Z,18.85
2023-03-13T05:54:44.660Z,13.57
2023-03-13T05:58:06.616Z,10.27
2023-03-13T06:01:07.983Z,12.80
2023-03-13T06:04:06.077Z,9.40
2023-03-13T06:06:54.263Z,10.43
2023-03-13T06:09:41.012Z,11.75
2023-03-13T06:12:27.435Z,9.77
2023-03-13T06:15:14.946Z,8.65
2023-03-13T06:18:13.143Z,13.57
2023-03-13T06:21:01.312Z,15.10
2023-03-13T06:23:46.581Z,13.07
2023-03-13T06:26:32.149Z,16.17
2023-03-13T06:29:18.292Z,13.00
2023-03-13T06:32:03.865Z,12.98
2023-03-13T06:34:51.897Z,15.48
2023-03-13T06:37:39.508Z,10.77
2023-03-13T06:40:26.238Z,14.32
2023-03-13T06:43:12.004Z,14.82
2023-03-13T06:45:58.118Z,9.38
2023-03-13T06:48:44.523Z,16.63
2023-03-13T06:51:30.122Z,16.73
2023-03-13T06:54:15.720Z,18.33
2023-03-13T06:57:01.217Z,18.83
2023-03-13T06:59:46.943Z,14.48
2023-03-13T07:02:32.800Z,17.08
2023-03-13T07:05:18.358Z,13.25
2023-03-13T07:08:04.172Z,17.85
2023-03-13T07:10:52.274Z,16.95
2023-03-13T07:13:38.147Z,16.55
2023-03-13T07:16:23.934Z,20.58
2023-03-13T07:19:09.345Z,18.52
2023-03-13T07:21:55.248Z,19.67
2023-03-13T07:24:40.764Z,25.85
2023-03-13T07:27:26.540Z,20.20
2023-03-13T07:30:12.169Z,18.90
2023-03-13T07:32:58.880Z,18.30
2023-03-13T07:35:50.292Z,17.63
2023-03-13T07:38:35.908Z,18.65
2023-03-13T07:41:21.413Z,15.70
2023-03-13T07:44:07.099Z,13.90
2023-03-13T07:46:52.573Z,17.13
2023-03-13T07:49:42.085Z,16.00
2023-03-13T07:52:28.053Z,12.30
2023-03-13T07:55:13.575Z,8.65
2023-03-13T07:57:59.038Z,16.42
2023-03-13T08:00:44.420Z,14.73
2023-03-13T08:03:30.350Z,14.40
2023-03-13T08:06:18.084Z,11.93
2023-03-13T08:09:03.860Z,14.35
2023-03-13T08:11:49.706Z,12.88
2023-03-13T08:14:34.959Z,13.18
2023-03-13T08:17:20.827Z,7.60
2023-03-13T08:20:07.902Z,10.48
2023-03-13T08:22:55.713Z,11.25
2023-03-13T08:25:41.344Z,13.55
2023-03-13T08:28:28.862Z,13.45
2023-03-13T08:31:23.240Z,8.10
2023-03-13T08:34:08.640Z,17.63
2023-03-13T08:36:54.120Z,8.02
2023-03-13T08:39:39.768Z,19.67
2023-03-13T08:42:25.389Z,10.98
2023-03-13T08:45:13.467Z,12.57
2023-03-13T08:47:58.733Z,10.23
2023-03-13T08:50:43.956Z,8.32
2023-03-13T08:53:30.915Z,11.15
2023-03-13T08:56:18.570Z,10.95
2023-03-13T08:59:05.671Z,14.90
2023-03-13T09:01:50.956Z,11.38
2023-03-13T09:04:36.721Z,9.68
2023-03-13T09:07:22.295Z,13.23
2023-03-13T09:10:08.714Z,8.40
2023-03-13T09:12:54.026Z,13.63
2023-03-13T09:15:39.723Z,12.93
2023-03-13T09:18:25.964Z,10.10
2023-03-13T09:21:21.178Z,12.48
2023-03-13T09:24:06.928Z,11.95
2023-03-13T09:27:00.922Z,8.50
2023-03-13T09:29:46.792Z,12.98
2023-03-13T09:32:32.530Z,10.70
2023-03-13T09:35:22.887Z,10.73
2023-03-13T09:38:08.462Z,9.35
2023-03-13T09:41:05.669Z,7.18
2023-03-13T09:44:18.175Z,8.57
2023-03-13T09:47:05.889Z,10.15
2023-03-13T09:50:04.905Z,9.85
2023-03-13T09:52:55.252Z,11.45
2023-03-13T09:55:44.927Z,7.13
2023-03-13T09:58:31.651Z,11.20
2023-03-13T10:01:22.743Z,7.20
2023-03-13T10:04:43.712Z,6.68
2023-03-13T10:07:29.430Z,5.50
2023-03-13T10:10:21.676Z,3.47
2023-03-13T10:13:22.490Z,10.02
2023-03-13T10:16:11.771Z,7.78
2023-03-13T10:19:02.581Z,10.35
2023-03-13T10:21:53.506Z,7.63
2023-03-13T10:24:52.012Z,6.45
2023-03-13T10:27:55.034Z,5.75
2023-03-13T10:30:48.302Z,6.43
2023-03-13T10:33:36.938Z,9.27
2023-03-13T10:36:24.941Z,6.75
2023-03-13T10:39:19.135Z,6.20
2023-03-13T10:42:20.481Z,9.93
2023-03-13T10:45:06.813Z,8.45
2023-03-13T10:47:56.876Z,10.38
2023-03-13T10:50:45.015Z,8.05
2023-03-13T10:53:30.682Z,7.07
2023-03-13T10:56:24.530Z,8.13
2023-03-13T10:59:27.848Z,6.90
2023-03-13T11:02:40.217Z,6.20
2023-03-13T11:05:26.367Z,11.18
2023-03-13T11:08:16.231Z,8.68
2023-03-13T11:11:16.458Z,10.57
2023-03-13T11:14:10.109Z,9.48
2023-03-13T11:17:32.563Z,11.88
2023-03-13T11:20:30.280Z,7.35
2023-03-13T11:23:23.072Z,7.20
2023-03-13T11:26:32.509Z,7.35
2023-03-13T11:29:39.997Z,7.53
2023-03-13T11:32:50.026Z,10.50
2023-03-13T11:35:49.184Z,12.82
2023-03-13T11:38:44.508Z,8.73
2023-03-13T11:42:01.138Z,14.52
2023-03-13T11:44:58.668Z,16.70
2023-03-13T11:48:08.957Z,18.15
2023-03-13T11:51:07.701Z,14.65
2023-03-13T11:54:16.500Z,11.45
2023-03-13T11:57:14.544Z,11.00
2023-03-13T12:00:18.382Z,13.98
2023-03-13T12:03:20.389Z,12.50
2023-03-13T12:06:27.383Z,16.27
2023-03-13T12:09:19.386Z,11.38
2023-03-13T12:12:31.161Z,14.70
2023-03-13T12:15:24.674Z,13.93
2023-03-13T12:18:30.057Z,10.05
2023-03-13T12:24:34.207Z,12.02
2023-03-13T12:27:35.337Z,19.48
2023-03-13T12:30:36.133Z,22.50
2023-03-13T12:33:26.847Z,20.70
2023-03-13T12:36:33.430Z,21.25
2023-03-13T12:39:53.557Z,21.65
2023-03-13T12:42:58.141Z,18.52
2023-03-13T12:46:02.173Z,21.40
2023-03-13T12:49:18.892Z,21.92
2023-03-13T12:52:13.444Z,21.80
2023-03-13T12:55:22.373Z,20.52
2023-03-13T12:58:29.720Z,29.48
2023-03-13T13:01:24.276Z,20.27
2023-03-13T13:04:19.824Z,23.60
2023-03-13T13:07:18.241Z,32.67
2023-03-13T13:10:10.077Z,30.50
2023-03-13T13:13:18.749Z,35.53
2023-03-13T13:16:08.163Z,21.08
2023-03-13T13:19:22.825Z,25.35
2023-03-13T13:22:36.938Z,18.90
2023-03-13T13:25:35.256Z,24.98
2023-03-13T13:28:27.494Z,18.50
2023-03-13T13:31:44.343Z,20.77
2023-03-13T13:34:31.077Z,19.92
2023-03-13T13:37:16.486Z,23.52
2023-03-13T13:40:31.180Z,25.17
2023-03-13T13:43:23.322Z,21.67
2023-03-13T13:46:24.564Z,19.67
2023-03-13T13:49:18.911Z,24.27
2023-03-13T13:52:07.121Z,17.55
2023-03-13T13:54:57.393Z,23.30
2023-03-13T13:57:45.905Z,24.23
2023-03-13T14:00:56.582Z,21.60
2023-03-13T14:03:42.355Z,25.50
2023-03-13T14:06:32.012Z,18.20
2023-03-13T14:09:43.158Z,24.25
2023-03-13T14:12:32.042Z,25.85
2023-03-13T14:15:34.213Z,25.63
2023-03-13T14:18:22.264Z,19.83
2023-03-13T14:21:14.098Z,22.95
2023-03-13T14:24:13.828Z,22.75
2023-03-13T14:26:59.733Z,21.75
2023-03-13T14:30:04.774Z,24.58
2023-03-13T14:32:51.540Z,22.27
2023-03-13T14:35:37.500Z,26.92
2023-03-13T14:38:30.079Z,23.10
2023-03-13T14:41:44.860Z,18.48
2023-03-13T14:44:37.581Z,25.58
2023-03-13T14:47:34.764Z,25.48
2023-03-13T14:50:24.831Z,17.52
2023-03-13T14:53:21.897Z,25.70
2023-03-13T14:56:18.997Z,20.48
2023-03-13T14:59:17.372Z,22.95
2023-03-13T15:02:20.101Z,20.42
2023-03-13T15:05:11.489Z,22.92
2023-03-13T15:07:57.987Z,28.45
2023-03-13T15:10:43.713Z,28.17
2023-03-13T15:13:38.552Z,24.60
2023-03-13T15:16:32.532Z,22.02
2023-03-13T15:19:18.150Z,19.52
2023-03-13T15:22:04.008Z,44.88
2023-03-13T15:25:04.948Z,18.67
2023-03-13T15:27:52.542Z,21.98
2023-03-13T15:30:38.288Z,25.95
2023-03-13T15:33:29.653Z,18.15
2023-03-13T15:36:15.135Z,26.80
2023-03-13T15:39:00.746Z,26.17
2023-03-13T15:41:54.035Z,26.58
2023-03-13T15:44:40.563Z,23.95
2023-03-13T15:47:26.649Z,25.92
2023-03-13T15:50:19.445Z,51.75
2023-03-13T15:53:17.186Z,28.17
2023-03-13T15:56:13.751Z,29.27
2023-03-13T15:59:04.017Z,39.28
2023-03-13T16:01:50.108Z,24.92
2023-03-13T16:04:37.663Z,32.60
2023-03-13T16:07:24.562Z,21.80
2023-03-13T16:10:29.713Z,37.83
2023-03-13T16:13:15.390Z,31.50
2023-03-13T16:16:00.840Z,38.42
2023-03-13T16:18:51.039Z,32.13
2023-03-13T16:21:43.055Z,24.67
2023-03-13T16:24:28.680Z,38.00
2023-03-13T16:27:19.095Z,34.67
2023-03-13T16:30:12.304Z,29.58
2023-03-13T16:32:58.850Z,40.35
2023-03-13T16:35:44.980Z,34.72
2023-03-13T16:38:30.832Z,37.75
2023-03-13T16:41:19.157Z,25.55
2023-03-13T16:44:04.779Z,43.08
2023-03-13T16:47:04.421Z,29.40
2023-03-13T16:49:50.936Z,36.47
2023-03-13T16:52:36.429Z,30.98
2023-03-13T16:55:29.622Z,33.22
2023-03-13T16:58:14.897Z,33.55
2023-03-13T17:01:06.118Z,34.83
2023-03-13T17:03:52.517Z,34.80
2023-03-13T17:06:48.135Z,33.17
2023-03-13T17:12:19.291Z,33.37
2023-03-13T17:15:05.137Z,39.78
2023-03-13T17:17:52.385Z,39.63
2023-03-13T17:20:37.751Z,35.83
2023-03-13T17:23:23.215Z,35.17
2023-03-13T17:26:39.241Z,45.55
2023-03-13T17:29:24.794Z,35.38
2023-03-13T17:32:14.901Z,33.65
2023-03-13T17:35:00.319Z,45.22
2023-03-13T17:37:45.963Z,38.13
2023-03-13T17:40:34.667Z,32.75
2023-03-13T17:43:20.803Z,38.40
2023-03-13T17:46:16.057Z,35.70
2023-03-13T17:49:01.597Z,41.50
2023-03-13T17:51:49.328Z,43.90
2023-03-13T17:54:35.190Z,46.13
2023-03-13T17:57:22.396Z,36.17
2023-03-13T18:00:26.051Z,37.15
2023-03-13T18:03:13.819Z,39.30
2023-03-13T18:05:59.334Z,44.65
2023-03-13T18:08:45.169Z,37.38
2023-03-13T18:11:30.852Z,43.08
2023-03-13T18:14:16.619Z,40.17
2023-03-13T18:17:02.178Z,42.83
2023-03-13T18:19:49.293Z,47.88
2023-03-13T18:22:34.570Z,35.78
2023-03-13T18:25:19.936Z,40.33
2023-03-13T18:28:05.435Z,42.30
2023-03-13T18:30:51.112Z,34.33
2023-03-13T18:33:36.415Z,34.90
2023-03-13T18:36:22.006Z,43.22
2023-03-13T18:39:07.754Z,36.47
2023-03-13T18:41:52.882Z,37.90
2023-03-13T18:44:38.705Z,37.25
2023-03-13T18:47:27.527Z,35.72
2023-03-13T18:50:19.038Z,39.72
2023-03-13T18:53:04.617Z,36.83
2023-03-13T18:55:49.972Z,34.72
2023-03-13T18:58:35.317Z,38.80
2023-03-13T19:01:22.874Z,32.20
2023-03-13T19:04:10.515Z,40.60
2023-03-13T19:06:55.768Z,34.65
2023-03-13T19:09:46.816Z,40.65
2023-03-13T19:12:32.760Z,40.78
2023-03-13T19:15:18.404Z,34.15
2023-03-13T19:18:04.419Z,39.78
2023-03-13T19:20:51.253Z,41.28
2023-03-13T19:23:36.565Z,29.20
2023-03-13T19:26:46.819Z,33.95
2023-03-13T19:29:36.451Z,32.50
2023-03-13T19:32:22.188Z,36.10
2023-03-13T19:35:15.020Z,36.97
2023-03-13T19:38:00.622Z,31.35
2023-03-13T19:40:51.884Z,37.45
2023-03-13T19:43:38.752Z,33.67
2023-03-13T19:46:29.269Z,36.65
2023-03-13T19:49:22.571Z,26.50
2023-03-13T19:52:08.208Z,29.30
2023-03-13T19:54:55.734Z,35.78
2023-03-13T19:57:44.193Z,44.30
2023-03-13T20:00:29.438Z,36.58
2023-03-13T20:03:15.720Z,34.05
2023-03-13T20:06:01.316Z,35.08
2023-03-13T20:08:47.547Z,37.17
2023-03-13T20:11:32.920Z,33.70
2023-03-13T20:14:18.675Z,28.45
2023-03-13T20:17:04.067Z,27.05
2023-03-13T20:19:49.760Z,31.85
2023-03-13T20:22:35.213Z,30.67
2023-03-13T20:25:24.129Z,33.45
2023-03-13T20:28:10.879Z,35.97
2023-03-13T20:30:56.221Z,38.20
2023-03-13T20:33:41.967Z,31.70
2023-03-13T20:36:33.860Z,29.52
2023-03-13T20:39:19.448Z,33.38
2023-03-13T20:42:07.541Z,20.60
2023-03-13T20:44:53.133Z,29.17
2023-03-13T20:47:47.765Z,26.73
2023-03-13T20:50:33.173Z,32.60
2023-03-13T20:53:19.739Z,32.83
2023-03-13T20:56:07.363Z,42.75
2023-03-13T20:58:56.121Z,33.38
2023-03-13T21:01:44.363Z,26.77
2023-03-13T21:04:29.844Z,38.97
2023-03-13T21:07:15.030Z,38.35
2023-03-13T21:10:00.698Z,32.67
2023-03-13T21:12:46.630Z,34.20
2023-03-13T21:15:32.622Z,31.25
2023-03-13T21:18:20.877Z,46.08
2023-03-13T21:21:13.201Z,25.85
2023-03-13T21:23:58.642Z,33.13
2023-03-13T21:26:47.212Z,36.95
2023-03-13T21:29:32.564Z,32.65
2023-03-13T21:32:19.431Z,35.25
2023-03-13T21:35:05.858Z,36.88
2023-03-13T21:37:51.554Z,37.85
2023-03-13T21:40:41.293Z,35.17
2023-03-13T21:43:28.346Z,34.35
2023-03-13T21:46:17.023Z,31.15
2023-03-13T21:49:03.078Z,29.55
2023-03-13T21:51:48.557Z,34.13
2023-03-13T21:54:34.302Z,30.88
2023-03-13T21:57:22.115Z,30.88
2023-03-13T22:00:09.816Z,31.33
2023-03-13T22:02:55.413Z,29.55
2023-03-13T22:05:45.084Z,37.75
2023-03-13T22:08:30.954Z,35.47
2023-03-13T22:11:16.204Z,33.05
2023-03-13T22:14:01.585Z,40.75
2023-03-13T22:16:48.080Z,43.17
2023-03-13T22:19:37.424Z,32.10
2023-03-13T22:22:23.168Z,26.02
2023-03-13T22:25:08.807Z,27.02
2023-03-13T22:27:54.192Z,38.95
2023-03-13T22:30:40.214Z,34.92
2023-03-13T22:33:25.868Z,26.13
2023-03-13T22:36:11.780Z,36.38
2023-03-13T22:38:59.629Z,22.73
2023-03-13T22:41:45.146Z,35.25
2023-03-13T22:44:30.945Z,22.25
2023-03-13T22:47:16.204Z,30.02
2023-03-13T22:50:01.767Z,29.42
2023-03-13T22:52:47.424Z,21.73
2023-03-13T22:55:33.490Z,27.30
2023-03-13T22:58:18.776Z,27.10
2023-03-13T23:01:09.559Z,27.10
2023-03-13T23:03:55.445Z,27.35
2023-03-13T23:06:41.105Z,20.25
2023-03-13T23:09:26.613Z,22.48
2023-03-13T23:12:12.008Z,33.17
2023-03-13T23:14:59.603Z,28.42
2023-03-13T23:17:45.344Z,18.17
2023-03-13T23:20:30.528Z,26.55
2023-03-13T23:23:16.137Z,23.40
2023-03-13T23:26:03.484Z,24.00
2023-03-13T23:28:54.690Z,17.73
2023-03-13T23:32:05.351Z,18.58
2023-03-13T23:34:50.987Z,24.60
2023-03-13T23:37:36.507Z,23.65
2023-03-13T23:40:23.766Z,23.27
2023-03-13T23:43:09.993Z,26.75
2023-03-13T23:45:55.254Z,24.60
2023-03-13T23:48:42.201Z,21.33
2023-03-13T23:51:30.754Z,23.05
2023-03-13T23:54:16.415Z,22.17
2023-03-13T23:57:01.760Z,21.48
2023-03-13T23:59:47.001Z,17.67
